Time;durP1;ratioP1;P1;durP2;ratioP2;P2;SDS_P1;SDS_P2;PMS_P1;PMS_P2;Temp;Humidity;BMP_temperature;BMP_pressure;BME280_temperature;BME280_humidity;BME280_pressure;Samples;Min_cycle;Max_cycle;Signal;HPM_P1;HPM_P2
2022/06/21 00:00:26;;;;;;;24.90;5.50;;;;;;;16.92;66.43;101022.66;4891522;28;120507;-81
2022/06/21 00:02:58;;;;;;;17.02;5.05;;;;;;;16.98;66.48;101029.75;4903023;28;120085;-83
2022/06/21 00:05:29;;;;;;;23.88;5.32;;;;;;;16.96;66.39;101032.25;4912060;28;119605;-81
2022/06/21 00:07:56;;;;;;;20.17;6.10;;;;;;;16.95;66.70;101030.75;4915635;28;119346;-81
2022/06/21 00:10:22;;;;;;;20.00;5.32;;;;;;;16.97;66.82;101024.72;4915485;28;119560;-81
2022/06/21 00:12:48;;;;;;;21.67;6.32;;;;;;;16.98;66.80;101034.53;4918532;28;119373;-81
2022/06/21 00:15:14;;;;;;;24.17;6.57;;;;;;;16.98;66.87;101032.53;4915884;28;119338;-81
2022/06/21 00:17:47;;;;;;;30.13;6.43;;;;;;;16.99;66.83;101028.50;4911558;28;119767;-81
2022/06/21 00:20:18;;;;;;;23.23;6.13;;;;;;;16.93;66.95;101018.63;4898370;28;119363;-81
2022/06/21 00:22:44;;;;;;;19.77;6.18;;;;;;;16.99;67.31;101031.28;4915094;28;121104;-81
2022/06/21 00:25:23;;;;;;;25.30;6.18;;;;;;;16.99;66.76;101024.97;4918897;28;120023;-81
2022/06/21 00:27:50;;;;;;;22.08;5.85;;;;;;;16.96;67.04;101032.25;4914647;28;120570;-81
2022/06/21 00:30:17;;;;;;;23.40;5.95;;;;;;;17.00;67.03;101040.38;4882645;28;119516;-82
2022/06/21 00:32:44;;;;;;;25.45;6.07;;;;;;;16.98;66.71;101034.53;4915260;28;119418;-81
2022/06/21 00:35:19;;;;;;;18.65;5.28;;;;;;;16.95;66.77;101027.97;4913160;28;119727;-81
2022/06/21 00:37:45;;;;;;;23.95;6.50;;;;;;;16.93;66.84;101027.69;4899385;28;119603;-81
2022/06/21 00:40:23;;;;;;;22.38;5.97;;;;;;;16.93;66.85;101026.94;4913151;28;121015;-82
2022/06/21 00:42:55;;;;;;;24.88;5.95;;;;;;;16.91;67.07;101035.75;4899370;28;119530;-81
2022/06/21 00:45:29;;;;;;;17.33;5.80;;;;;;;16.89;66.84;101043.78;4896533;28;119751;-81
2022/06/21 00:48:00;;;;;;;24.70;5.97;;;;;;;16.86;66.54;101028.13;4920455;28;119914;-81
2022/06/21 00:50:26;;;;;;;25.90;6.45;;;;;;;16.86;66.77;101030.91;4917335;28;119341;-81
2022/06/21 00:53:07;;;;;;;23.77;5.97;;;;;;;16.84;66.46;101027.84;4903810;28;119909;-83
2022/06/21 00:55:54;;;;;;;22.38;5.57;;;;;;;16.79;66.43;101006.34;4911192;28;119585;-81
2022/06/21 00:58:23;;;;;;;20.67;5.82;;;;;;;16.81;66.81;101023.28;4899053;28;119832;-82
2022/06/21 01:00:55;;;;;;;29.67;6.20;;;;;;;16.77;66.81;101008.84;4915084;28;119869;-82
2022/06/21 01:03:26;;;;;;;25.92;6.15;;;;;;;16.81;66.96;101021.28;4916403;28;119479;-81
2022/06/21 01:05:55;;;;;;;24.27;5.97;;;;;;;16.83;66.96;101029.84;4913287;28;119563;-81
2022/06/21 01:08:27;;;;;;;28.98;5.85;;;;;;;16.80;66.76;101027.31;4908183;28;120368;-81
2022/06/21 01:10:59;;;;;;;24.00;5.15;;;;;;;16.75;66.84;101022.44;4902043;28;120049;-82
2022/06/21 01:13:29;;;;;;;23.58;5.68;;;;;;;16.80;66.87;101019.00;4915476;28;119594;-81
2022/06/21 01:15:56;;;;;;;28.77;6.15;;;;;;;16.81;67.00;101037.91;4881866;28;121874;-82
2022/06/21 01:18:24;;;;;;;29.67;5.97;;;;;;;16.79;67.06;101034.81;4899431;28;120044;-81
2022/06/21 01:20:56;;;;;;;27.08;5.63;;;;;;;16.82;67.11;101027.56;4916826;28;119467;-81
2022/06/21 01:23:40;;;;;;;22.65;5.60;;;;;;;16.80;66.91;101033.59;4916025;28;119288;-81
2022/06/21 01:26:40;;;;;;;26.13;5.32;;;;;;;16.80;66.88;101027.31;4915484;28;119720;-80
2022/06/21 01:29:07;;;;;;;;;;;;;;;16.78;66.90;101029.78;4876831;28;119503;-81
2022/06/21 01:32:03;;;;;;;23.88;5.55;;;;;;;16.79;67.02;101020.22;4888246;28;119585;-81
2022/06/21 01:34:29;;;;;;;30.02;5.97;;;;;;;16.79;67.25;101020.22;4915771;28;119431;-81
2022/06/21 01:36:58;;;;;;;24.05;5.95;;;;;;;16.79;67.01;101011.91;4913673;28;121340;-80
2022/06/21 01:39:33;;;;;;;24.58;5.70;;;;;;;16.80;66.85;101019.00;4912558;28;120049;-81
2022/06/21 01:42:08;;;;;;;24.55;5.95;;;;;;;16.78;66.58;101016.69;4914762;28;119971;-80
2022/06/21 01:44:41;;;;;;;22.40;5.80;;;;;;;16.78;66.64;101022.22;4909795;28;119782;-82
2022/06/21 01:47:13;;;;;;;29.67;5.72;;;;;;;16.70;66.67;101012.03;4915098;28;119219;-81
2022/06/21 01:49:47;;;;;;;26.20;5.82;;;;;;;16.77;67.09;101019.94;4912684;28;119590;-81
2022/06/21 01:52:19;;;;;;;;;;;;;;;16.73;66.45;101031.22;4914097;28;119741;-81
2022/06/21 01:54:53;;;;;;;20.95;5.60;;;;;;;16.71;66.74;101016.34;4921309;28;120068;-81
2022/06/21 01:57:19;;;;;;;26.10;5.95;;;;;;;16.71;67.00;101021.88;4915019;28;119596;-81
2022/06/21 01:59:49;;;;;;;27.48;6.05;;;;;;;16.73;66.86;101030.47;4915038;28;119713;-81
2022/06/21 02:02:29;;;;;;;27.42;5.68;;;;;;;16.72;66.79;101028.94;4915622;28;119325;-81
2022/06/21 02:05:01;;;;;;;30.05;5.90;;;;;;;16.69;67.05;101025.13;4915257;28;119405;-81
2022/06/21 02:07:33;;;;;;;26.20;5.60;;;;;;;16.68;67.10;101029.16;4916285;28;119325;-82
2022/06/21 02:10:11;;;;;;;29.23;5.75;;;;;;;16.66;66.97;101031.66;4911887;28;119585;-81
2022/06/21 02:12:47;;;;;;;25.05;5.60;;;;;;;16.67;67.25;101026.88;4897450;28;120958;-81
2022/06/21 02:15:39;;;;;;;27.48;5.35;;;;;;;16.65;67.12;101030.09;4893537;28;119734;-82
2022/06/21 02:18:11;;;;;;;22.20;5.32;;;;;;;16.59;67.05;101020.97;4900900;28;119918;-81
2022/06/21 02:20:37;;;;;;;23.48;5.43;;;;;;;16.64;67.18;101019.50;4906845;28;119423;-81
2022/06/21 02:23:04;;;;;;;24.48;5.95;;;;;;;16.64;67.14;101017.50;4892855;28;120212;-82
2022/06/21 02:25:30;;;;;;;22.33;5.72;;;;;;;16.57;67.10;101004.84;4908946;28;120523;-83
2022/06/21 02:28:04;;;;;;;21.30;5.30;;;;;;;16.66;67.14;101020.56;4913022;28;119801;-82
2022/06/21 02:30:30;;;;;;;28.50;5.53;;;;;;;16.52;67.12;100997.19;4911697;28;119953;-81
2022/06/21 02:33:00;;;;;;;24.95;5.22;;;;;;;16.57;66.67;101002.06;4910896;28;119681;-81
2022/06/21 02:35:29;;;;;;;20.23;4.97;;;;;;;16.65;66.76;101023.78;4910781;28;119845;-81
2022/06/21 02:37:58;;;;;;;21.77;4.82;;;;;;;16.57;66.88;101006.84;4895965;28;119697;-80
2022/06/21 02:40:32;;;;;;;24.02;5.80;;;;;;;16.62;67.00;101013.69;4916269;28;123057;-81
2022/06/21 02:43:04;;;;;;;;;;;;;;;16.62;66.84;101024.78;4885586;28;119680;-80
2022/06/21 02:45:36;;;;;;;20.90;4.90;;;;;;;16.62;67.35;101022.00;4903644;28;120666;-81
2022/06/21 02:48:12;;;;;;;25.55;5.30;;;;;;;16.62;66.70;101025.53;4896665;28;119407;-81
2022/06/21 02:50:58;;;;;;;25.95;5.50;;;;;;;16.59;66.92;101029.28;4908001;28;120015;-80
2022/06/21 02:53:30;;;;;;;26.20;5.35;;;;;;;16.57;67.07;101018.69;4910608;28;122289;-81
2022/06/21 02:55:56;;;;;;;26.63;5.90;;;;;;;16.60;67.30;101021.72;4879566;28;119710;-81
2022/06/21 02:58:30;;;;;;;19.92;5.45;;;;;;;16.61;67.12;101017.72;4892575;28;119720;-81
2022/06/21 03:01:02;;;;;;;22.40;5.88;;;;;;;16.59;67.18;101015.41;4913845;28;119622;-81
2022/06/21 03:03:31;;;;;;;24.00;6.10;;;;;;;16.56;67.08;101017.16;4906843;28;119552;-81
2022/06/21 03:06:07;;;;;;;21.83;5.75;;;;;;;16.56;67.06;101011.63;4899595;28;120943;-81
2022/06/21 03:08:35;;;;;;;19.45;5.60;;;;;;;16.55;67.14;101007.28;4910344;28;119958;-81
2022/06/21 03:11:01;;;;;;;19.55;5.43;;;;;;;16.56;67.16;101017.16;4913799;28;119815;-81
2022/06/21 03:13:34;;;;;;;20.83;5.30;;;;;;;16.60;67.39;101027.25;4913217;28;120051;-81
2022/06/21 03:16:12;;;;;;;14.57;5.13;;;;;;;16.62;67.36;101024.78;4899962;28;119658;-81
2022/06/21 03:18:44;;;;;;;21.10;5.40;;;;;;;16.62;67.27;101024.78;4875894;28;121851;-81
2022/06/21 03:21:13;;;;;;;21.48;5.20;;;;;;;16.61;67.02;101023.25;4909866;28;119396;-81
2022/06/21 03:23:48;;;;;;;22.27;5.47;;;;;;;16.61;66.90;101024.00;4906610;28;119473;-80
2022/06/21 03:26:14;;;;;;;19.38;5.35;;;;;;;16.60;67.33;101021.72;4918812;28;119474;-81
2022/06/21 03:28:45;;;;;;;17.38;5.22;;;;;;;16.67;67.40;101026.88;4895048;28;119803;-81
2022/06/21 03:31:26;;;;;;;24.35;5.65;;;;;;;16.68;67.21;101033.94;4895689;28;120266;-81
2022/06/21 03:34:03;;;;;;;22.88;5.68;;;;;;;16.63;67.32;101020.75;4906303;28;119429;-81
2022/06/21 03:36:35;;;;;;;27.35;5.50;;;;;;;16.68;67.33;101028.41;4912234;28;119472;-81
2022/06/21 03:39:11;;;;;;;17.40;5.07;;;;;;;16.70;66.96;101029.44;4912266;28;119290;-80
2022/06/21 03:41:43;;;;;;;22.70;5.78;;;;;;;16.74;66.99;101038.28;4908063;28;119898;-81
2022/06/21 03:44:09;;;;;;;18.70;4.93;;;;;;;16.77;67.29;101048.41;4909780;28;118518;-81
2022/06/21 03:46:50;;;;;;;26.55;5.63;;;;;;;16.78;67.59;101043.63;4879131;28;120043;-81
2022/06/21 03:49:34;;;;;;;20.15;5.45;;;;;;;16.78;67.12;101035.31;4902966;28;119547;-83
2022/06/21 03:52:03;;;;;;;;;;;;;;;16.78;66.98;101033.31;4905783;28;119518;-81
2022/06/21 03:54:35;;;;;;;17.10;5.95;;;;;;;16.80;66.99;101039.16;4914673;28;120116;-81
2022/06/21 03:57:21;;;;;;;15.90;5.47;;;;;;;16.82;67.25;101038.66;4912081;28;120142;-82
2022/06/21 03:59:55;;;;;;;16.80;5.70;;;;;;;16.78;66.90;101038.84;4924039;28;119483;-81
2022/06/21 04:02:27;;;;;;;21.90;5.95;;;;;;;16.79;66.98;101039.59;4913656;28;119844;-81
2022/06/21 04:05:01;;;;;;;19.88;5.63;;;;;;;16.85;66.60;101037.69;4899029;28;119644;-82
2022/06/21 04:07:38;;;;;;;22.20;5.88;;;;;;;16.87;67.04;101037.97;4911886;28;119352;-81
2022/06/21 04:10:07;;;;;;;17.92;6.68;;;;;;;16.93;67.21;101052.63;4922400;28;119468;-81
2022/06/21 04:13:11;;;;;;;16.58;5.75;;;;;;;16.96;66.83;101048.13;4917107;28;119692;-81
2022/06/21 04:16:11;;;;;;;16.77;5.78;;;;;;;16.98;66.74;101054.72;4908255;28;120431;-80
2022/06/21 04:18:41;;;;;;;21.50;5.90;;;;;;;17.05;66.82;101062.63;4899271;28;119821;-82
2022/06/21 04:21:15;;;;;;;20.38;5.85;;;;;;;17.09;66.43;101065.94;4899418;28;119468;-81
2022/06/21 04:23:43;;;;;;;14.95;5.38;;;;;;;17.12;66.77;101066.97;4916493;28;119651;-81
2022/06/21 04:26:21;;;;;;;13.93;5.22;;;;;;;17.15;67.08;101069.53;4897018;28;120206;-82
2022/06/21 04:28:53;;;;;;;16.65;5.78;;;;;;;17.16;66.62;101059.97;4899531;28;119432;-82
2022/06/21 04:31:27;;;;;;;19.55;6.15;;;;;;;17.24;66.27;101062.31;4880133;28;120950;-82
2022/06/21 04:34:18;;;;;;;17.08;5.85;;;;;;;17.25;66.44;101064.59;4908494;28;119660;-81
2022/06/21 04:37:00;;;;;;;18.40;5.43;;;;;;;17.28;66.13;101065.66;4882090;28;120009;-82
2022/06/21 04:39:39;;;;;;;14.63;5.57;;;;;;;17.32;66.41;101071.75;4895137;28;119567;-81
2022/06/21 04:42:07;;;;;;;14.77;5.65;;;;;;;17.37;65.98;101069.03;4879132;28;120873;-81
2022/06/21 04:45:13;;;;;;;16.75;5.10;;;;;;;17.39;65.32;101074.84;4856243;28;120147;-82
2022/06/21 04:47:47;;;;;;;14.52;5.80;;;;;;;17.41;65.88;101080.66;4913869;28;119279;-81
2022/06/21 04:50:20;;;;;;;18.33;5.72;;;;;;;17.45;65.58;101089.50;4900321;28;120271;-81
2022/06/21 04:53:19;;;;;;;19.00;5.70;;;;;;;17.45;65.57;101083.97;4896423;28;119377;-81
2022/06/21 04:56:15;;;;;;;13.85;5.72;;;;;;;17.39;65.46;101074.06;4907500;28;119646;-81
2022/06/21 04:58:49;;;;;;;14.38;5.72;;;;;;;17.43;65.78;101075.38;4882016;28;121416;-81
2022/06/21 05:01:30;;;;;;;15.32;5.88;;;;;;;17.45;65.33;101083.22;4901121;28;119436;-81
2022/06/21 05:04:04;;;;;;;10.23;5.60;;;;;;;17.47;65.96;101075.91;4899034;28;119777;-81
2022/06/21 05:06:29;;;;;;;;;;;;;;;17.53;65.59;101089.09;4884393;28;120651;-81
2022/06/21 05:08:55;;;;;;;17.75;5.80;;;;;;;17.54;64.59;101093.41;4915647;28;119698;-82
2022/06/21 05:11:22;;;;;;;10.65;5.10;;;;;;;17.50;64.95;101093.59;4899054;28;119466;-81
2022/06/21 05:13:52;;;;;;;20.00;5.28;;;;;;;17.54;64.65;101096.19;4888947;28;120662;-81
2022/06/21 05:16:23;;;;;;;12.80;4.75;;;;;;;17.58;64.73;101103.03;4899323;28;119491;-81
2022/06/21 05:19:19;;;;;;;17.10;4.97;;;;;;;17.55;64.29;101097.69;4915895;28;119453;-81
2022/06/21 05:21:48;;;;;;;13.88;4.95;;;;;;;17.56;64.49;101099.97;4901062;28;119630;-81
2022/06/21 05:24:14;;;;;;;12.75;4.75;;;;;;;17.59;64.30;101104.53;4902857;28;119394;-81
2022/06/21 05:26:49;;;;;;;16.00;4.82;;;;;;;17.56;64.03;101088.88;4900220;28;119297;-81
2022/06/21 05:29:28;;;;;;;12.85;4.65;;;;;;;17.59;63.84;101099.00;4915930;28;119616;-81
2022/06/21 05:32:01;;;;;;;14.40;4.47;;;;;;;17.57;63.53;101101.50;4896772;28;121427;-81
2022/06/21 05:34:34;;;;;;;15.32;5.32;;;;;;;17.61;63.80;101101.28;4913204;28;119395;-81
2022/06/21 05:37:20;;;;;;;12.63;5.05;;;;;;;17.66;63.75;101104.09;4914717;28;119604;-81
2022/06/21 05:39:49;;;;;;;18.40;6.05;;;;;;;17.68;63.97;101103.63;4898004;28;119993;-81
2022/06/21 05:42:18;;;;;;;12.70;5.32;;;;;;;17.70;63.85;101101.91;4916422;28;119345;-81
2022/06/21 05:44:59;;;;;;;16.95;5.18;;;;;;;17.76;63.99;101105.50;4913609;28;119574;-80
2022/06/21 05:47:52;;;;;;;12.90;4.78;;;;;;;17.78;64.22;101103.00;4898441;28;119770;-81
2022/06/21 05:50:26;;;;;;;16.10;5.70;;;;;;;17.85;64.19;101112.13;4917299;28;119866;-81
2022/06/21 05:52:56;;;;;;;12.85;4.95;;;;;;;17.89;63.34;101115.44;4899410;28;119724;-81
2022/06/21 05:55:28;;;;;;;13.32;4.55;;;;;;;17.91;63.38;101115.72;4915250;28;119607;-81
2022/06/21 05:58:28;;;;;;;11.82;4.50;;;;;;;17.91;63.29;101124.03;4882363;28;118663;-81
2022/06/21 06:01:19;;;;;;;12.07;4.60;;;;;;;17.86;63.47;101111.66;4913913;28;119455;-80
2022/06/21 06:04:02;;;;;;;11.35;4.40;;;;;;;17.91;63.12;101110.16;4914237;28;120571;-81
2022/06/21 06:06:34;;;;;;;11.93;4.35;;;;;;;17.94;63.10;101112.72;4919468;28;119726;-81
2022/06/21 06:09:10;;;;;;;14.13;5.07;;;;;;;17.96;63.55;101110.22;4882817;28;121031;-81
2022/06/21 06:11:58;;;;;;;14.13;5.22;;;;;;;18.00;64.12;101104.47;4915479;28;119607;-81
2022/06/21 06:14:30;;;;;;;17.70;5.07;;;;;;;18.04;63.69;101108.53;4894844;28;120016;-81
2022/06/21 06:16:58;;;;;;;10.80;4.65;;;;;;;18.01;63.00;101103.97;4895676;28;120820;-80
2022/06/21 06:19:32;;;;;;;15.50;4.82;;;;;;;18.10;62.57;101116.91;4897171;28;119438;-81
2022/06/21 06:22:06;;;;;;;;;;;;;;;18.08;62.52;101116.63;4917634;28;119587;-81
2022/06/21 06:24:53;;;;;;;12.25;4.68;;;;;;;18.03;62.13;101109.78;4899971;28;119762;-81
2022/06/21 06:27:45;;;;;;;14.23;4.40;;;;;;;18.09;61.57;101112.59;4899508;28;120133;-81
2022/06/21 06:30:17;;;;;;;9.63;4.15;;;;;;;18.06;61.73;101113.59;4898560;28;121465;-81
2022/06/21 06:33:16;;;;;;;12.77;4.32;;;;;;;18.07;61.96;101123.44;4900004;28;119563;-81
2022/06/21 06:35:43;;;;;;;12.30;4.20;;;;;;;18.09;62.51;101118.16;4914830;28;119684;-81
2022/06/21 06:38:15;;;;;;;11.70;4.30;;;;;;;18.10;61.80;101120.44;4896366;28;119643;-81
2022/06/21 06:40:52;;;;;;;17.52;5.18;;;;;;;18.09;62.27;101113.38;4915348;28;119677;-81
2022/06/21 06:43:35;;;;;;;15.00;4.45;;;;;;;18.18;61.44;101123.53;4913092;28;120214;-81
2022/06/21 06:46:04;;;;;;;14.30;4.55;;;;;;;18.14;61.50;101116.69;4918104;28;119443;-81
2022/06/21 06:48:36;;;;;;;13.43;4.65;;;;;;;18.24;61.87;101127.13;4902327;28;119882;-81
2022/06/21 06:51:25;;;;;;;10.68;4.43;;;;;;;18.24;62.25;101129.13;4918782;28;119972;-81
2022/06/21 06:54:17;;;;;;;13.35;4.65;;;;;;;18.21;60.93;101130.88;4905811;28;119272;-81
2022/06/21 06:57:02;;;;;;;11.27;4.95;;;;;;;18.23;61.91;101127.63;4896712;28;120098;-82
2022/06/21 06:59:27;;;;;;;12.65;5.00;;;;;;;18.23;62.26;101128.38;4917897;28;119613;-81
2022/06/21 07:02:02;;;;;;;12.93;5.00;;;;;;;18.33;63.00;101132.50;4900571;28;119371;-81
2022/06/21 07:04:35;;;;;;;12.07;5.15;;;;;;;18.35;62.87;101124.41;4882445;28;119855;-81
2022/06/21 07:07:23;;;;;;;13.13;5.07;;;;;;;18.42;62.37;101140.63;4915502;28;119616;-80
2022/06/21 07:09:53;;;;;;;9.67;4.67;;;;;;;18.40;61.85;101128.50;4919508;28;119203;-81
2022/06/21 07:12:24;;;;;;;11.20;5.03;;;;;;;18.44;62.34;101134.56;4920168;28;119470;-81
2022/06/21 07:15:17;;;;;;;13.65;4.95;;;;;;;18.41;62.62;101122.44;4896926;28;119443;-81
2022/06/21 07:17:52;;;;;;;14.40;4.97;;;;;;;18.51;62.28;101119.50;4886471;28;119851;-81
2022/06/21 07:20:24;;;;;;;8.68;5.22;;;;;;;18.56;63.22;101133.41;4866549;28;121447;-81
2022/06/21 07:22:55;;;;;;;11.63;5.10;;;;;;;18.63;61.97;101140.56;4900301;28;119674;-81
2022/06/21 07:25:29;;;;;;;14.57;5.00;;;;;;;18.63;61.46;101137.78;4882723;28;119439;-81
2022/06/21 07:27:58;;;;;;;13.52;4.95;;;;;;;18.62;60.87;101147.34;4916605;28;122335;-82
2022/06/21 07:30:32;;;;;;;10.63;5.20;;;;;;;18.58;60.81;101142.00;4918187;28;119406;-81
2022/06/21 07:33:09;;;;;;;11.40;5.10;;;;;;;18.67;60.92;101143.84;4919468;28;119351;-81
2022/06/21 07:35:44;;;;;;;9.52;4.78;;;;;;;18.72;60.99;101147.94;4916088;28;120203;-81
2022/06/21 07:38:39;;;;;;;9.30;5.10;;;;;;;18.73;61.77;101147.44;4919093;28;119413;-81
2022/06/21 07:41:29;;;;;;;14.30;5.30;;;;;;;18.74;62.04;101148.97;4920817;28;119617;-81
2022/06/21 07:44:01;;;;;;;9.38;4.47;;;;;;;18.82;61.35;101147.25;4917249;28;119839;-81
2022/06/21 07:46:37;;;;;;;12.73;5.72;;;;;;;18.85;61.06;101157.38;4905063;28;119465;-81
2022/06/21 07:49:27;;;;;;;12.95;5.68;;;;;;;18.90;61.45;101151.06;4915865;28;120635;-81
2022/06/21 07:51:58;;;;;;;12.40;5.05;;;;;;;18.94;61.48;101148.84;4901341;28;119882;-81
2022/06/21 07:54:34;;;;;;;10.07;4.82;;;;;;;18.98;61.41;101152.16;4917922;28;119664;-82
2022/06/21 07:57:06;;;;;;;11.40;5.18;;;;;;;19.09;60.57;101145.09;4898840;28;121523;-81
2022/06/21 07:59:36;;;;;;;17.30;6.47;;;;;;;19.13;60.54;101148.41;4901167;28;119325;-81
2022/06/21 08:08:00;;;;;;;14.77;5.15;;;;;;;19.35;60.94;101137.38;4917342;28;121578;-81
2022/06/21 08:10:37;;;;;;;9.43;5.00;;;;;;;19.49;60.82;101136.41;4916148;28;121897;-81
2022/06/21 08:13:04;;;;;;;11.93;5.07;;;;;;;19.58;60.29;101122.28;4918689;28;119517;-81
2022/06/21 08:15:39;;;;;;;13.52;4.70;;;;;;;19.68;59.44;101133.22;4917976;28;119500;-81
2022/06/21 08:18:12;;;;;;;10.65;4.40;;;;;;;19.77;59.33;101119.81;4916712;28;120846;-81
2022/06/21 08:20:57;;;;;;;11.90;4.78;;;;;;;19.83;59.91;101128.16;4897366;28;119676;-81
2022/06/21 08:23:49;;;;;;;12.23;4.70;;;;;;;19.97;59.87;101138.31;4911030;28;119718;-81
2022/06/21 08:26:31;;;;;;;11.93;4.55;;;;;;;20.04;58.96;101143.38;4910760;28;120553;-81
2022/06/21 08:29:35;;;;;;;10.70;4.78;;;;;;;20.11;58.83;101140.09;4917823;28;119636;-81
2022/06/21 08:32:17;;;;;;;11.20;4.43;;;;;;;20.21;58.80;101137.81;4915965;28;120903;-81
2022/06/21 08:34:49;;;;;;;10.50;5.03;;;;;;;20.27;59.09;101130.22;4916605;28;119515;-81
2022/06/21 08:37:35;;;;;;;11.93;4.32;;;;;;;20.46;58.79;101144.41;4910463;28;119438;-81
2022/06/21 08:40:40;;;;;;;12.63;5.20;;;;;;;20.52;58.36;101145.94;4910629;28;120125;-81
2022/06/21 08:43:43;;;;;;;8.43;4.13;;;;;;;20.62;57.62;101134.53;4913821;28;119577;-81
2022/06/21 08:46:57;;;;;;;10.05;4.28;;;;;;;20.70;58.02;101130.69;4912318;28;119860;-81
2022/06/21 08:49:52;;;;;;;14.95;5.22;;;;;;;20.74;57.51;101125.63;4860203;28;119680;-82
2022/06/21 08:52:37;;;;;;;14.50;4.57;;;;;;;20.83;57.32;101132.97;4918951;28;119805;-81
2022/06/21 08:55:19;;;;;;;10.13;4.28;;;;;;;20.89;57.20;101135.72;4914382;28;119857;-81
2022/06/21 08:58:23;;;;;;;11.50;4.53;;;;;;;20.96;57.25;101135.94;4903311;28;119980;-83
2022/06/21 09:00:59;;;;;;;9.75;4.60;;;;;;;20.95;54.89;101114.16;4854041;28;121720;-81
2022/06/21 09:04:09;;;;;;;14.02;4.70;;;;;;;21.03;56.59;101123.50;4901679;28;120045;-82
2022/06/21 09:07:03;;;;;;;8.73;4.72;;;;;;;21.11;57.30;101135.66;4911716;28;119714;-82
2022/06/21 09:09:45;;;;;;;11.48;4.40;;;;;;;21.14;56.09;101138.19;4893127;28;120811;-81
2022/06/21 09:12:35;;;;;;;9.38;4.18;;;;;;;21.20;54.96;101140.19;4894151;28;119759;-81
2022/06/21 09:15:04;;;;;;;12.95;4.38;;;;;;;21.22;56.15;101132.81;4906156;28;119710;-81
2022/06/21 09:17:51;;;;;;;11.57;4.18;;;;;;;21.27;56.03;101145.25;4910290;28;119653;-82
2022/06/21 09:20:39;;;;;;;9.40;4.47;;;;;;;21.31;56.44;101137.38;4916058;28;119397;-82
2022/06/21 09:23:12;;;;;;;9.38;4.03;;;;;;;21.32;57.01;101136.88;4932137;28;119629;-82
2022/06/21 09:25:47;;;;;;;11.32;4.60;;;;;;;21.40;55.90;101139.88;4895634;28;122630;-81
2022/06/21 09:28:38;;;;;;;12.45;4.50;;;;;;;21.40;55.70;101134.28;4913231;28;119475;-81
2022/06/21 09:31:17;;;;;;;10.07;4.70;;;;;;;21.38;56.09;101140.38;4901045;28;119593;-81
2022/06/21 09:33:46;;;;;;;8.57;4.70;;;;;;;21.40;55.60;101139.88;4906110;28;119442;-82
2022/06/21 09:36:38;;;;;;;9.88;4.80;;;;;;;21.40;56.15;101146.19;4909351;28;119926;-81
2022/06/21 09:39:22;;;;;;;7.70;3.95;;;;;;;21.39;55.04;101144.69;4893978;28;119932;-81
2022/06/21 09:42:12;;;;;;;11.00;4.47;;;;;;;21.39;55.69;101147.47;4912418;28;120697;-81
2022/06/21 09:44:56;;;;;;;11.00;5.32;;;;;;;21.40;55.01;101159.41;4912635;28;119273;-82
2022/06/21 09:48:05;;;;;;;9.23;4.68;;;;;;;21.35;55.85;101138.63;4906124;28;120052;-81
2022/06/21 09:50:57;;;;;;;8.07;4.18;;;;;;;21.35;54.05;101152.56;4870426;28;119801;-81
2022/06/21 09:53:38;;;;;;;7.22;4.15;;;;;;;21.31;54.67;101157.66;4914346;28;119472;-81
2022/06/21 09:56:20;;;;;;;10.50;5.03;;;;;;;21.29;54.83;101159.44;4898791;28;122643;-81
2022/06/21 09:58:51;;;;;;;10.05;4.28;;;;;;;21.25;53.93;101154.13;4916106;28;119548;-81
2022/06/21 10:01:37;;;;;;;12.50;4.93;;;;;;;21.24;54.00;101152.59;4899488;28;120641;-81
2022/06/21 10:04:40;;;;;;;9.48;4.80;;;;;;;21.26;55.54;101157.66;4900111;28;120189;-82
2022/06/21 10:07:28;;;;;;;12.88;4.05;;;;;;;21.32;54.89;101164.78;4898996;28;119850;-81
2022/06/21 10:10:49;;;;;;;10.57;4.47;;;;;;;21.39;55.21;101143.94;4872623;28;119746;-81
2022/06/21 10:13:20;;;;;;;7.93;4.30;;;;;;;21.53;55.64;101158.81;4897108;28;119776;-82
2022/06/21 10:16:01;;;;;;;10.63;4.55;;;;;;;21.64;55.33;101165.09;4912092;28;120151;-81
2022/06/21 10:18:54;;;;;;;8.95;4.32;;;;;;;21.73;54.62;101158.44;4876473;28;123192;-82
2022/06/21 10:21:57;;;;;;;9.98;4.38;;;;;;;21.73;53.97;101161.25;4900519;28;120251;-81
2022/06/21 10:25:00;;;;;;;8.23;3.95;;;;;;;21.77;53.55;101161.75;4915306;28;121926;-82
2022/06/21 10:27:47;;;;;;;9.95;3.88;;;;;;;21.82;54.17;101168.56;4914735;28;123030;-82
2022/06/21 10:30:36;;;;;;;9.57;4.18;;;;;;;21.86;54.88;101172.59;4904899;28;120084;-82
2022/06/21 10:33:16;;;;;;;6.47;3.58;;;;;;;21.88;53.32;101172.84;4917225;28;121581;-82
2022/06/21 10:36:03;;;;;;;10.07;3.80;;;;;;;21.83;53.87;101189.63;4860004;28;120134;-82
2022/06/21 10:38:37;;;;;;;6.85;3.58;;;;;;;21.78;53.22;101187.63;4861200;28;120048;-82
2022/06/21 10:41:31;;;;;;;10.13;3.10;;;;;;;21.76;53.27;101183.31;4876388;28;119892;-82
2022/06/21 10:44:18;;;;;;;8.75;3.63;;;;;;;21.73;53.40;101175.97;4876254;28;119929;-82
2022/06/21 10:46:50;;;;;;;8.63;3.70;;;;;;;21.68;54.04;101181.59;4876944;28;120124;-82
2022/06/21 10:49:35;;;;;;;5.47;2.92;;;;;;;21.69;53.47;101183.09;4875847;28;120060;-81
2022/06/21 10:52:28;;;;;;;8.38;3.42;;;;;;;21.65;53.90;101177.03;4864857;28;119646;-81
2022/06/21 10:55:15;;;;;;;8.80;3.97;;;;;;;21.62;53.89;101184.41;4863377;28;120922;-81
2022/06/21 10:57:53;;;;;;;;;;;;;;;21.58;54.26;101183.16;4876752;28;119752;-81
2022/06/21 11:04:11;;;;;;;11.45;3.72;;;;;;;21.52;53.85;101190.78;4874863;28;122344;-82
2022/06/21 11:07:25;;;;;;;8.82;3.72;;;;;;;21.45;53.53;101178.16;4882150;28;119319;-82
2022/06/21 11:09:58;;;;;;;6.85;3.40;;;;;;;21.43;54.01;101166.75;4881571;28;120622;-81
2022/06/21 11:13:04;;;;;;;6.63;3.27;;;;;;;21.39;53.83;101169.03;4899377;28;119959;-82
2022/06/21 11:15:48;;;;;;;7.22;3.58;;;;;;;21.34;54.48;101162.22;4917088;28;119728;-81
2022/06/21 11:18:16;;;;;;;;;;;;;;;21.39;54.47;101175.38;4896198;28;119922;-81
2022/06/21 11:21:06;;;;;;;6.32;3.80;;;;;;;21.39;54.79;101171.84;4918084;28;120115;-81
2022/06/21 11:23:56;;;;;;;7.13;3.95;;;;;;;21.39;54.69;101171.84;4911484;28;120013;-81
2022/06/21 11:26:31;;;;;;;11.13;4.10;;;;;;;21.32;54.22;101167.56;4916288;28;120337;-81
2022/06/21 11:29:15;;;;;;;11.68;4.20;;;;;;;21.18;54.42;101151.09;4896946;28;119877;-81
2022/06/21 11:31:59;;;;;;;6.88;4.20;;;;;;;21.26;55.24;101161.22;4914654;28;119787;-81
2022/06/21 11:34:50;;;;;;;7.90;3.90;;;;;;;21.26;55.28;101163.25;4899309;28;120594;-81
2022/06/21 11:37:31;;;;;;;8.32;4.30;;;;;;;21.33;55.36;101157.91;4898908;28;120296;-82
2022/06/21 11:40:16;;;;;;;9.90;4.03;;;;;;;21.34;54.96;101167.03;4893117;28;119731;-82
2022/06/21 11:42:55;;;;;;;12.35;4.03;;;;;;;21.27;54.78;101148.78;4892572;28;121571;-82
2022/06/21 11:45:56;;;;;;;10.07;4.20;;;;;;;21.28;54.78;101155.13;4919350;28;120583;-82
2022/06/21 11:48:37;;;;;;;10.52;4.18;;;;;;;21.28;55.32;101150.31;4912692;28;120677;-81
2022/06/21 11:51:09;;;;;;;11.23;4.30;;;;;;;21.28;55.04;101149.53;4913703;28;119977;-81
2022/06/21 11:53:41;;;;;;;11.27;4.05;;;;;;;21.28;55.11;101161.47;4916632;28;119744;-81
2022/06/21 11:56:25;;;;;;;11.50;4.32;;;;;;;21.27;55.05;101143.22;4913749;28;121117;-81
2022/06/21 11:58:54;;;;;;;;;;;;;;;21.24;55.06;101144.25;4917240;28;118734;-82
2022/06/21 12:01:30;;;;;;;8.75;4.13;;;;;;;21.26;55.16;101152.09;4917130;28;120091;-82
2022/06/21 12:04:06;;;;;;;9.18;3.97;;;;;;;21.25;54.95;101154.13;4929831;28;120744;-81
2022/06/21 12:06:41;;;;;;;10.40;4.20;;;;;;;21.28;55.71;101155.13;4914415;28;119664;-82
2022/06/21 12:09:45;;;;;;;7.22;4.28;;;;;;;21.28;55.00;101166.28;4917769;28;121691;-81
2022/06/21 12:12:11;;;;;;;9.20;4.03;;;;;;;21.27;55.40;101153.59;4898182;28;119663;-83